sensor_id;sensor_type;location;lat;lon;timestamp;temperature;humidity
61151;DHT22;47029;50.994;2.876;2022-09-03T00:00:54;19.50;99.90
61151;DHT22;47029;50.994;2.876;2022-09-03T00:03:39;19.40;99.90
61151;DHT22;47029;50.994;2.876;2022-09-03T00:06:17;19.40;99.90
61151;DHT22;47029;50.994;2.876;2022-09-03T00:11:44;19.40;99.90
61151;DHT22;47029;50.994;2.876;2022-09-03T00:14:17;20.00;99.90
61151;DHT22;47029;50.994;2.876;2022-09-03T00:16:54;19.20;99.90
61151;DHT22;47029;50.994;2.876;2022-09-03T00:19:30;19.00;99.90
61151;DHT22;47029;50.994;2.876;2022-09-03T00:22:02;19.00;99.90
61151;DHT22;47029;50.994;2.876;2022-09-03T00:24:35;19.00;99.90
61151;DHT22;47029;50.994;2.876;2022-09-03T00:27:06;19.00;99.90
61151;DHT22;47029;50.994;2.876;2022-09-03T00:29:40;18.80;99.90
61151;DHT22;47029;50.994;2.876;2022-09-03T00:32:17;19.10;99.90
61151;DHT22;47029;50.994;2.876;2022-09-03T00:34:50;19.30;99.90
61151;DHT22;47029;50.994;2.876;2022-09-03T00:37:17;19.30;99.90
61151;DHT22;47029;50.994;2.876;2022-09-03T00:39:42;19.40;99.90
61151;DHT22;47029;50.994;2.876;2022-09-03T00:47:48;19.50;99.90
61151;DHT22;47029;50.994;2.876;2022-09-03T00:56:36;19.70;99.90
61151;DHT22;47029;50.994;2.876;2022-09-03T01:10:04;19.30;99.90
61151;DHT22;47029;50.994;2.876;2022-09-03T01:15:16;19.50;99.90
61151;DHT22;47029;50.994;2.876;2022-09-03T01:26:54;19.40;99.90
61151;DHT22;47029;50.994;2.876;2022-09-03T01:30:02;19.40;99.90
61151;DHT22;47029;50.994;2.876;2022-09-03T01:35:48;19.30;99.90
61151;DHT22;47029;50.994;2.876;2022-09-03T01:38:39;19.30;99.90
61151;DHT22;47029;50.994;2.876;2022-09-03T01:47:29;19.10;99.90
61151;DHT22;47029;50.994;2.876;2022-09-03T01:50:06;19.40;99.90
61151;DHT22;47029;50.994;2.876;2022-09-03T01:57:57;19.30;99.90
61151;DHT22;47029;50.994;2.876;2022-09-03T02:00:30;19.20;99.90
61151;DHT22;47029;50.994;2.876;2022-09-03T02:03:04;19.30;99.90
61151;DHT22;47029;50.994;2.876;2022-09-03T02:05:31;19.20;99.90
61151;DHT22;47029;50.994;2.876;2022-09-03T02:07:58;19.50;99.90
61151;DHT22;47029;50.994;2.876;2022-09-03T02:10:43;19.30;99.90
61151;DHT22;47029;50.994;2.876;2022-09-03T02:15:44;19.20;99.90
61151;DHT22;47029;50.994;2.876;2022-09-03T02:18:20;18.80;99.90
61151;DHT22;47029;50.994;2.876;2022-09-03T02:20:48;19.30;99.90
61151;DHT22;47029;50.994;2.876;2022-09-03T02:23:15;19.20;99.90
61151;DHT22;47029;50.994;2.876;2022-09-03T02:25:44;19.50;99.90
61151;DHT22;47029;50.994;2.876;2022-09-03T02:28:12;19.20;99.90
61151;DHT22;47029;50.994;2.876;2022-09-03T02:30:41;19.00;99.90
61151;DHT22;47029;50.994;2.876;2022-09-03T02:33:10;18.90;99.90
61151;DHT22;47029;50.994;2.876;2022-09-03T02:35:43;18.80;99.90
61151;DHT22;47029;50.994;2.876;2022-09-03T02:38:15;18.80;99.90
61151;DHT22;47029;50.994;2.876;2022-09-03T02:40:48;18.90;99.90
61151;DHT22;47029;50.994;2.876;2022-09-03T02:43:20;18.80;99.90
61151;DHT22;47029;50.994;2.876;2022-09-03T02:45:50;18.70;99.90
61151;DHT22;47029;50.994;2.876;2022-09-03T02:48:22;18.70;99.90
61151;DHT22;47029;50.994;2.876;2022-09-03T02:50:48;18.90;99.90
61151;DHT22;47029;50.994;2.876;2022-09-03T02:53:14;18.80;99.90
61151;DHT22;47029;50.994;2.876;2022-09-03T02:55:40;19.00;99.90
61151;DHT22;47029;50.994;2.876;2022-09-03T02:58:10;19.00;99.90
61151;DHT22;47029;50.994;2.876;2022-09-03T03:00:36;19.00;99.90
61151;DHT22;47029;50.994;2.876;2022-09-03T03:03:03;19.00;99.90
61151;DHT22;47029;50.994;2.876;2022-09-03T03:05:53;19.00;99.90
61151;DHT22;47029;50.994;2.876;2022-09-03T03:08:24;19.10;99.90
61151;DHT22;47029;50.994;2.876;2022-09-03T03:10:53;19.10;99.90
61151;DHT22;47029;50.994;2.876;2022-09-03T03:13:23;19.10;99.90
61151;DHT22;47029;50.994;2.876;2022-09-03T03:15:49;19.10;99.90
61151;DHT22;47029;50.994;2.876;2022-09-03T03:18:15;19.00;99.90
61151;DHT22;47029;50.994;2.876;2022-09-03T03:20:42;18.60;99.90
61151;DHT22;47029;50.994;2.876;2022-09-03T03:23:12;19.00;99.90
61151;DHT22;47029;50.994;2.876;2022-09-03T03:25:39;18.90;99.90
61151;DHT22;47029;50.994;2.876;2022-09-03T03:28:07;18.80;99.90
61151;DHT22;47029;50.994;2.876;2022-09-03T03:30:36;18.50;99.90
61151;DHT22;47029;50.994;2.876;2022-09-03T03:33:09;18.50;99.90
61151;DHT22;47029;50.994;2.876;2022-09-03T03:35:35;18.50;99.90
61151;DHT22;47029;50.994;2.876;2022-09-03T03:38:01;18.50;99.90
61151;DHT22;47029;50.994;2.876;2022-09-03T03:40:29;18.50;99.90
61151;DHT22;47029;50.994;2.876;2022-09-03T03:42:57;18.70;99.90
61151;DHT22;47029;50.994;2.876;2022-09-03T03:45:23;18.50;99.90
61151;DHT22;47029;50.994;2.876;2022-09-03T03:47:49;18.30;99.90
61151;DHT22;47029;50.994;2.876;2022-09-03T03:50:17;18.40;99.90
61151;DHT22;47029;50.994;2.876;2022-09-03T03:52:42;18.30;99.90
61151;DHT22;47029;50.994;2.876;2022-09-03T03:55:08;18.50;99.90
61151;DHT22;47029;50.994;2.876;2022-09-03T03:57:34;18.50;99.90
61151;DHT22;47029;50.994;2.876;2022-09-03T04:00:00;18.50;99.90
61151;DHT22;47029;50.994;2.876;2022-09-03T04:02:26;18.60;99.90
61151;DHT22;47029;50.994;2.876;2022-09-03T04:04:52;18.80;99.90
61151;DHT22;47029;50.994;2.876;2022-09-03T04:07:18;18.80;99.90
61151;DHT22;47029;50.994;2.876;2022-09-03T04:09:46;18.60;99.90
61151;DHT22;47029;50.994;2.876;2022-09-03T04:12:12;18.60;99.90
61151;DHT22;47029;50.994;2.876;2022-09-03T04:14:37;18.60;99.90
61151;DHT22;47029;50.994;2.876;2022-09-03T04:17:03;18.60;99.90
61151;DHT22;47029;50.994;2.876;2022-09-03T04:19:29;18.20;99.90
61151;DHT22;47029;50.994;2.876;2022-09-03T04:21:55;18.70;99.90
61151;DHT22;47029;50.994;2.876;2022-09-03T04:24:21;18.10;99.90
61151;DHT22;47029;50.994;2.876;2022-09-03T04:26:47;19.40;99.90
61151;DHT22;47029;50.994;2.876;2022-09-03T04:29:15;18.50;99.90
61151;DHT22;47029;50.994;2.876;2022-09-03T04:31:43;18.00;99.90
61151;DHT22;47029;50.994;2.876;2022-09-03T04:34:29;18.40;99.90
61151;DHT22;47029;50.994;2.876;2022-09-03T04:37:00;18.10;99.90
61151;DHT22;47029;50.994;2.876;2022-09-03T04:39:28;18.70;99.90
61151;DHT22;47029;50.994;2.876;2022-09-03T04:41:58;18.10;99.90
61151;DHT22;47029;50.994;2.876;2022-09-03T04:44:24;18.20;99.90
61151;DHT22;47029;50.994;2.876;2022-09-03T04:46:59;18.50;99.90
61151;DHT22;47029;50.994;2.876;2022-09-03T04:49:24;18.50;99.90
61151;DHT22;47029;50.994;2.876;2022-09-03T04:51:50;18.50;99.90
61151;DHT22;47029;50.994;2.876;2022-09-03T04:54:16;18.40;99.90
61151;DHT22;47029;50.994;2.876;2022-09-03T04:56:41;18.40;99.90
61151;DHT22;47029;50.994;2.876;2022-09-03T04:59:10;18.50;99.90
61151;DHT22;47029;50.994;2.876;2022-09-03T05:01:37;18.20;99.90
61151;DHT22;47029;50.994;2.876;2022-09-03T05:04:04;18.50;99.90
61151;DHT22;47029;50.994;2.876;2022-09-03T05:06:34;18.50;99.90
61151;DHT22;47029;50.994;2.876;2022-09-03T05:09:02;18.50;99.90
61151;DHT22;47029;50.994;2.876;2022-09-03T05:11:31;18.50;99.90
61151;DHT22;47029;50.994;2.876;2022-09-03T05:14:04;18.50;99.90
61151;DHT22;47029;50.994;2.876;2022-09-03T05:16:31;18.70;99.90
61151;DHT22;47029;50.994;2.876;2022-09-03T05:18:58;18.40;99.90
61151;DHT22;47029;50.994;2.876;2022-09-03T05:21:26;18.20;99.90
61151;DHT22;47029;50.994;2.876;2022-09-03T05:23:53;18.20;99.90
61151;DHT22;47029;50.994;2.876;2022-09-03T05:26:21;18.30;99.90
61151;DHT22;47029;50.994;2.876;2022-09-03T05:28:53;18.40;99.90
61151;DHT22;47029;50.994;2.876;2022-09-03T05:31:24;18.50;99.90
61151;DHT22;47029;50.994;2.876;2022-09-03T05:33:55;18.60;99.90
61151;DHT22;47029;50.994;2.876;2022-09-03T05:36:24;18.70;99.90
61151;DHT22;47029;50.994;2.876;2022-09-03T05:38:51;18.60;99.90
61151;DHT22;47029;50.994;2.876;2022-09-03T05:41:21;18.40;99.90
61151;DHT22;47029;50.994;2.876;2022-09-03T05:43:48;18.60;99.90
61151;DHT22;47029;50.994;2.876;2022-09-03T05:46:24;18.70;99.90
61151;DHT22;47029;50.994;2.876;2022-09-03T05:48:57;18.80;99.90
61151;DHT22;47029;50.994;2.876;2022-09-03T05:51:24;18.90;99.90
61151;DHT22;47029;50.994;2.876;2022-09-03T05:53:49;19.00;99.90
61151;DHT22;47029;50.994;2.876;2022-09-03T05:56:17;19.00;99.90
61151;DHT22;47029;50.994;2.876;2022-09-03T05:58:46;19.10;99.90
61151;DHT22;47029;50.994;2.876;2022-09-03T06:03:40;19.10;99.90
61151;DHT22;47029;50.994;2.876;2022-09-03T06:06:06;19.10;99.90
61151;DHT22;47029;50.994;2.876;2022-09-03T06:08:33;19.10;99.90
61151;DHT22;47029;50.994;2.876;2022-09-03T06:11:00;19.10;99.90
61151;DHT22;47029;50.994;2.876;2022-09-03T06:13:29;19.10;99.90
61151;DHT22;47029;50.994;2.876;2022-09-03T06:15:56;19.00;99.90
61151;DHT22;47029;50.994;2.876;2022-09-03T06:18:23;19.20;99.90
61151;DHT22;47029;50.994;2.876;2022-09-03T06:20:59;19.00;99.90
61151;DHT22;47029;50.994;2.876;2022-09-03T06:23:27;19.20;99.90
61151;DHT22;47029;50.994;2.876;2022-09-03T06:28:26;19.40;99.90
61151;DHT22;47029;50.994;2.876;2022-09-03T06:30:52;19.30;99.90
61151;DHT22;47029;50.994;2.876;2022-09-03T06:33:25;19.30;99.90
61151;DHT22;47029;50.994;2.876;2022-09-03T06:35:55;19.30;99.90
61151;DHT22;47029;50.994;2.876;2022-09-03T06:38:28;19.10;99.90
61151;DHT22;47029;50.994;2.876;2022-09-03T06:40:58;19.30;99.90
61151;DHT22;47029;50.994;2.876;2022-09-03T06:43:43;19.40;99.90
61151;DHT22;47029;50.994;2.876;2022-09-03T06:46:13;19.30;99.90
61151;DHT22;47029;50.994;2.876;2022-09-03T06:48:42;19.30;99.90
61151;DHT22;47029;50.994;2.876;2022-09-03T06:51:21;19.30;99.90
61151;DHT22;47029;50.994;2.876;2022-09-03T06:53:49;19.40;99.90
61151;DHT22;47029;50.994;2.876;2022-09-03T06:56:21;20.00;99.90
61151;DHT22;47029;50.994;2.876;2022-09-03T06:58:56;19.60;99.90
61151;DHT22;47029;50.994;2.876;2022-09-03T07:01:29;19.60;99.90
61151;DHT22;47029;50.994;2.876;2022-09-03T07:03:59;19.60;99.90
61151;DHT22;47029;50.994;2.876;2022-09-03T07:06:30;19.60;99.90
61151;DHT22;47029;50.994;2.876;2022-09-03T07:08:59;19.80;99.90
61151;DHT22;47029;50.994;2.876;2022-09-03T07:11:29;19.80;99.90
61151;DHT22;47029;50.994;2.876;2022-09-03T07:13:59;19.80;99.90
61151;DHT22;47029;50.994;2.876;2022-09-03T07:16:31;19.80;99.90
61151;DHT22;47029;50.994;2.876;2022-09-03T07:19:00;19.90;99.90
61151;DHT22;47029;50.994;2.876;2022-09-03T07:21:29;20.00;99.90
61151;DHT22;47029;50.994;2.876;2022-09-03T07:24:01;20.10;99.90
61151;DHT22;47029;50.994;2.876;2022-09-03T07:26:31;20.00;99.90
61151;DHT22;47029;50.994;2.876;2022-09-03T07:28:58;19.90;99.90
61151;DHT22;47029;50.994;2.876;2022-09-03T07:31:35;19.90;99.90
61151;DHT22;47029;50.994;2.876;2022-09-03T07:34:07;20.20;99.90
61151;DHT22;47029;50.994;2.876;2022-09-03T07:36:42;20.00;99.90
61151;DHT22;47029;50.994;2.876;2022-09-03T07:39:12;20.40;99.90
61151;DHT22;47029;50.994;2.876;2022-09-03T07:41:38;20.00;99.90
61151;DHT22;47029;50.994;2.876;2022-09-03T07:44:16;20.10;99.90
61151;DHT22;47029;50.994;2.876;2022-09-03T07:46:44;20.20;99.90
61151;DHT22;47029;50.994;2.876;2022-09-03T07:49:12;20.60;99.90
61151;DHT22;47029;50.994;2.876;2022-09-03T07:51:38;20.80;99.90
61151;DHT22;47029;50.994;2.876;2022-09-03T07:54:08;20.80;99.90
61151;DHT22;47029;50.994;2.876;2022-09-03T07:56:36;20.70;99.90
61151;DHT22;47029;50.994;2.876;2022-09-03T07:59:03;20.60;99.90
61151;DHT22;47029;50.994;2.876;2022-09-03T08:01:30;20.70;99.90
61151;DHT22;47029;50.994;2.876;2022-09-03T08:03:57;20.70;99.90
61151;DHT22;47029;50.994;2.876;2022-09-03T08:06:28;20.50;99.90
61151;DHT22;47029;50.994;2.876;2022-09-03T08:09:02;20.60;99.90
61151;DHT22;47029;50.994;2.876;2022-09-03T08:11:29;20.60;99.90
61151;DHT22;47029;50.994;2.876;2022-09-03T08:14:00;20.70;99.90
61151;DHT22;47029;50.994;2.876;2022-09-03T08:16:38;20.90;99.90
61151;DHT22;47029;50.994;2.876;2022-09-03T08:19:07;21.20;99.90
61151;DHT22;47029;50.994;2.876;2022-09-03T08:21:35;21.30;99.90
61151;DHT22;47029;50.994;2.876;2022-09-03T08:24:07;21.40;99.90
61151;DHT22;47029;50.994;2.876;2022-09-03T08:26:40;21.30;99.90
61151;DHT22;47029;50.994;2.876;2022-09-03T08:29:24;21.40;99.90
61151;DHT22;47029;50.994;2.876;2022-09-03T08:32:13;21.30;99.90
61151;DHT22;47029;50.994;2.876;2022-09-03T08:34:52;21.80;99.90
61151;DHT22;47029;50.994;2.876;2022-09-03T08:37:25;21.50;99.90
61151;DHT22;47029;50.994;2.876;2022-09-03T08:40:09;21.70;99.90
61151;DHT22;47029;50.994;2.876;2022-09-03T08:45:34;21.70;99.90
61151;DHT22;47029;50.994;2.876;2022-09-03T08:48:09;21.50;99.90
61151;DHT22;47029;50.994;2.876;2022-09-03T08:50:42;21.50;99.90
61151;DHT22;47029;50.994;2.876;2022-09-03T08:53:25;21.70;99.90
61151;DHT22;47029;50.994;2.876;2022-09-03T08:56:10;22.00;99.90
61151;DHT22;47029;50.994;2.876;2022-09-03T08:58:44;22.10;99.90
61151;DHT22;47029;50.994;2.876;2022-09-03T09:04:23;22.30;99.90
61151;DHT22;47029;50.994;2.876;2022-09-03T09:10:05;22.20;99.90
61151;DHT22;47029;50.994;2.876;2022-09-03T09:15:47;22.20;99.90
61151;DHT22;47029;50.994;2.876;2022-09-03T09:18:29;22.30;99.90
61151;DHT22;47029;50.994;2.876;2022-09-03T09:21:17;22.30;99.90
61151;DHT22;47029;50.994;2.876;2022-09-03T09:23:46;22.30;99.90
61151;DHT22;47029;50.994;2.876;2022-09-03T09:26:20;22.20;99.90
61151;DHT22;47029;50.994;2.876;2022-09-03T09:29:03;22.80;99.90
61151;DHT22;47029;50.994;2.876;2022-09-03T09:31:31;22.00;99.90
61151;DHT22;47029;50.994;2.876;2022-09-03T09:34:10;22.20;99.90
61151;DHT22;47029;50.994;2.876;2022-09-03T09:37:05;22.50;99.90
61151;DHT22;47029;50.994;2.876;2022-09-03T09:39:35;22.30;99.90
61151;DHT22;47029;50.994;2.876;2022-09-03T09:42:06;22.40;99.90
61151;DHT22;47029;50.994;2.876;2022-09-03T09:44:40;22.60;99.90
61151;DHT22;47029;50.994;2.876;2022-09-03T09:47:22;22.20;99.90
61151;DHT22;47029;50.994;2.876;2022-09-03T09:49:59;22.70;99.90
61151;DHT22;47029;50.994;2.876;2022-09-03T09:52:27;22.80;99.90
61151;DHT22;47029;50.994;2.876;2022-09-03T09:55:15;22.80;99.90
61151;DHT22;47029;50.994;2.876;2022-09-03T09:57:44;22.90;99.90
61151;DHT22;47029;50.994;2.876;2022-09-03T10:00:15;22.80;99.90
61151;DHT22;47029;50.994;2.876;2022-09-03T10:02:49;23.30;99.90
61151;DHT22;47029;50.994;2.876;2022-09-03T10:05:27;23.20;99.90
61151;DHT22;47029;50.994;2.876;2022-09-03T10:08:03;23.30;99.90
61151;DHT22;47029;50.994;2.876;2022-09-03T10:10:32;23.20;99.90
61151;DHT22;47029;50.994;2.876;2022-09-03T10:13:08;23.50;99.90
61151;DHT22;47029;50.994;2.876;2022-09-03T10:21:07;23.60;99.90
61151;DHT22;47029;50.994;2.876;2022-09-03T10:26:31;23.90;99.90
61151;DHT22;47029;50.994;2.876;2022-09-03T10:29:05;23.90;99.90
61151;DHT22;47029;50.994;2.876;2022-09-03T10:45:37;23.70;99.90
61151;DHT22;47029;50.994;2.876;2022-09-03T10:51:45;24.00;99.90
61151;DHT22;47029;50.994;2.876;2022-09-03T10:53:45;24.10;99.90
61151;DHT22;47029;50.994;2.876;2022-09-03T10:59:14;23.80;99.90
61151;DHT22;47029;50.994;2.876;2022-09-03T11:04:45;24.10;99.90
61151;DHT22;47029;50.994;2.876;2022-09-03T11:07:20;24.50;99.60
61151;DHT22;47029;50.994;2.876;2022-09-03T11:15:36;24.80;98.30
61151;DHT22;47029;50.994;2.876;2022-09-03T11:18:24;25.00;98.20
61151;DHT22;47029;50.994;2.876;2022-09-03T11:20:54;25.30;98.10
61151;DHT22;47029;50.994;2.876;2022-09-03T11:23:23;25.50;97.80
61151;DHT22;47029;50.994;2.876;2022-09-03T11:25:56;25.60;96.90
61151;DHT22;47029;50.994;2.876;2022-09-03T11:28:47;25.90;97.00
61151;DHT22;47029;50.994;2.876;2022-09-03T11:34:12;25.90;96.40
61151;DHT22;47029;50.994;2.876;2022-09-03T11:36:41;25.80;96.40
61151;DHT22;47029;50.994;2.876;2022-09-03T11:39:42;25.90;96.30
61151;DHT22;47029;50.994;2.876;2022-09-03T11:42:34;26.00;95.60
61151;DHT22;47029;50.994;2.876;2022-09-03T11:45:36;26.00;95.80
61151;DHT22;47029;50.994;2.876;2022-09-03T11:48:26;25.90;95.50
61151;DHT22;47029;50.994;2.876;2022-09-03T11:50:54;25.60;96.70
61151;DHT22;47029;50.994;2.876;2022-09-03T11:53:32;25.90;97.20
61151;DHT22;47029;50.994;2.876;2022-09-03T11:56:11;26.20;96.20
61151;DHT22;47029;50.994;2.876;2022-09-03T11:58:41;26.30;95.30
61151;DHT22;47029;50.994;2.876;2022-09-03T12:01:17;26.00;95.60
61151;DHT22;47029;50.994;2.876;2022-09-03T12:03:50;25.60;95.30
61151;DHT22;47029;50.994;2.876;2022-09-03T12:15:10;26.00;94.90
61151;DHT22;47029;50.994;2.876;2022-09-03T12:17:56;25.90;95.20
61151;DHT22;47029;50.994;2.876;2022-09-03T12:20:46;26.30;94.30
61151;DHT22;47029;50.994;2.876;2022-09-03T12:23:29;26.00;94.50
61151;DHT22;47029;50.994;2.876;2022-09-03T12:26:05;25.80;95.30
61151;DHT22;47029;50.994;2.876;2022-09-03T12:28:42;25.60;95.60
61151;DHT22;47029;50.994;2.876;2022-09-03T12:31:13;25.40;95.70
61151;DHT22;47029;50.994;2.876;2022-09-03T12:33:53;25.60;95.00
61151;DHT22;47029;50.994;2.876;2022-09-03T12:36:35;25.70;95.70
61151;DHT22;47029;50.994;2.876;2022-09-03T12:39:24;25.60;95.90
61151;DHT22;47029;50.994;2.876;2022-09-03T12:42:08;25.60;95.40
61151;DHT22;47029;50.994;2.876;2022-09-03T12:44:40;25.70;95.50
61151;DHT22;47029;50.994;2.876;2022-09-03T12:47:10;25.50;95.30
61151;DHT22;47029;50.994;2.876;2022-09-03T12:50:04;25.60;95.60
61151;DHT22;47029;50.994;2.876;2022-09-03T12:52:35;25.80;95.30
61151;DHT22;47029;50.994;2.876;2022-09-03T12:55:13;26.30;93.90
61151;DHT22;47029;50.994;2.876;2022-09-03T12:57:46;26.60;93.60
61151;DHT22;47029;50.994;2.876;2022-09-03T13:00:17;26.80;93.50
61151;DHT22;47029;50.994;2.876;2022-09-03T13:05:44;27.10;93.40
61151;DHT22;47029;50.994;2.876;2022-09-03T13:08:23;27.50;92.60
61151;DHT22;47029;50.994;2.876;2022-09-03T13:10:55;27.20;92.40
61151;DHT22;47029;50.994;2.876;2022-09-03T13:13:30;27.30;92.50
61151;DHT22;47029;50.994;2.876;2022-09-03T13:16:16;27.20;92.80
61151;DHT22;47029;50.994;2.876;2022-09-03T13:26:33;26.30;92.80
61151;DHT22;47029;50.994;2.876;2022-09-03T13:29:18;26.40;93.00
61151;DHT22;47029;50.994;2.876;2022-09-03T13:31:54;26.20;93.00
61151;DHT22;47029;50.994;2.876;2022-09-03T13:34:39;26.00;93.50
61151;DHT22;47029;50.994;2.876;2022-09-03T13:37:26;26.00;93.40
61151;DHT22;47029;50.994;2.876;2022-09-03T13:39:58;25.70;94.00
61151;DHT22;47029;50.994;2.876;2022-09-03T13:42:35;25.50;94.20
61151;DHT22;47029;50.994;2.876;2022-09-03T13:45:27;25.60;94.60
61151;DHT22;47029;50.994;2.876;2022-09-03T13:48:28;25.20;94.30
61151;DHT22;47029;50.994;2.876;2022-09-03T13:51:37;25.80;94.80
61151;DHT22;47029;50.994;2.876;2022-09-03T14:02:19;25.90;94.10
61151;DHT22;47029;50.994;2.876;2022-09-03T14:07:50;26.10;93.90
61151;DHT22;47029;50.994;2.876;2022-09-03T14:10:43;26.30;93.80
61151;DHT22;47029;50.994;2.876;2022-09-03T14:16:43;26.20;93.50
61151;DHT22;47029;50.994;2.876;2022-09-03T14:19:31;26.10;93.30
61151;DHT22;47029;50.994;2.876;2022-09-03T14:22:14;26.10;93.50
61151;DHT22;47029;50.994;2.876;2022-09-03T14:24:48;26.30;93.40
61151;DHT22;47029;50.994;2.876;2022-09-03T14:27:29;26.20;92.80
61151;DHT22;47029;50.994;2.876;2022-09-03T14:30:30;26.30;93.20
61151;DHT22;47029;50.994;2.876;2022-09-03T14:35:43;26.80;93.70
61151;DHT22;47029;50.994;2.876;2022-09-03T14:59:33;27.60;91.00
61151;DHT22;47029;50.994;2.876;2022-09-03T15:07:35;26.70;92.30
61151;DHT22;47029;50.994;2.876;2022-09-03T15:10:24;26.50;93.20
61151;DHT22;47029;50.994;2.876;2022-09-03T15:12:56;26.40;92.60
61151;DHT22;47029;50.994;2.876;2022-09-03T15:24:12;26.10;93.00
61151;DHT22;47029;50.994;2.876;2022-09-03T15:27:08;26.00;93.00
61151;DHT22;47029;50.994;2.876;2022-09-03T15:32:21;25.90;93.40
61151;DHT22;47029;50.994;2.876;2022-09-03T15:35:02;25.90;93.10
61151;DHT22;47029;50.994;2.876;2022-09-03T15:37:47;25.90;93.30
61151;DHT22;47029;50.994;2.876;2022-09-03T15:42:58;25.90;93.20
61151;DHT22;47029;50.994;2.876;2022-09-03T15:45:50;25.90;93.40
61151;DHT22;47029;50.994;2.876;2022-09-03T15:51:27;25.80;93.80
61151;DHT22;47029;50.994;2.876;2022-09-03T15:54:05;25.80;94.10
61151;DHT22;47029;50.994;2.876;2022-09-03T15:59:17;25.70;93.70
61151;DHT22;47029;50.994;2.876;2022-09-03T16:01:57;26.00;93.90
61151;DHT22;47029;50.994;2.876;2022-09-03T16:05:02;26.10;94.00
61151;DHT22;47029;50.994;2.876;2022-09-03T16:10:19;25.30;95.80
61151;DHT22;47029;50.994;2.876;2022-09-03T16:15:39;24.90;96.60
61151;DHT22;47029;50.994;2.876;2022-09-03T16:18:22;25.10;96.50
61151;DHT22;47029;50.994;2.876;2022-09-03T16:23:48;24.90;99.30
61151;DHT22;47029;50.994;2.876;2022-09-03T16:26:36;23.90;99.90
61151;DHT22;47029;50.994;2.876;2022-09-03T16:29:13;23.90;99.90
61151;DHT22;47029;50.994;2.876;2022-09-03T16:32:17;23.10;99.90
61151;DHT22;47029;50.994;2.876;2022-09-03T16:38:19;22.20;99.90
61151;DHT22;47029;50.994;2.876;2022-09-03T16:46:20;22.10;99.90
61151;DHT22;47029;50.994;2.876;2022-09-03T16:52:00;22.10;99.90
61151;DHT22;47029;50.994;2.876;2022-09-03T17:12:24;22.50;99.90
61151;DHT22;47029;50.994;2.876;2022-09-03T17:15:19;22.50;99.90
61151;DHT22;47029;50.994;2.876;2022-09-03T17:20:18;22.50;99.90
61151;DHT22;47029;50.994;2.876;2022-09-03T17:23:20;22.50;99.90
61151;DHT22;47029;50.994;2.876;2022-09-03T17:26:01;22.70;99.90
61151;DHT22;47029;50.994;2.876;2022-09-03T17:37:20;22.60;99.90
61151;DHT22;47029;50.994;2.876;2022-09-03T17:40:02;22.40;99.90
61151;DHT22;47029;50.994;2.876;2022-09-03T17:42:50;22.40;99.90
61151;DHT22;47029;50.994;2.876;2022-09-03T17:51:38;22.00;99.90
61151;DHT22;47029;50.994;2.876;2022-09-03T17:54:23;22.20;99.90
61151;DHT22;47029;50.994;2.876;2022-09-03T18:05:48;22.30;99.90
61151;DHT22;47029;50.994;2.876;2022-09-03T18:11:46;22.20;99.90
61151;DHT22;47029;50.994;2.876;2022-09-03T18:14:34;22.30;99.90
61151;DHT22;47029;50.994;2.876;2022-09-03T18:20:12;22.00;99.90
61151;DHT22;47029;50.994;2.876;2022-09-03T18:23:21;22.30;99.90
61151;DHT22;47029;50.994;2.876;2022-09-03T18:26:32;22.40;99.90
61151;DHT22;47029;50.994;2.876;2022-09-03T18:30:16;22.30;99.90
61151;DHT22;47029;50.994;2.876;2022-09-03T18:32:49;22.20;99.90
61151;DHT22;47029;50.994;2.876;2022-09-03T18:35:54;22.10;99.90
61151;DHT22;47029;50.994;2.876;2022-09-03T18:39:02;22.10;99.90
61151;DHT22;47029;50.994;2.876;2022-09-03T18:48:53;21.90;99.90
61151;DHT22;47029;50.994;2.876;2022-09-03T19:11:21;22.00;99.90
61151;DHT22;47029;50.994;2.876;2022-09-03T19:17:27;22.10;99.90
61151;DHT22;47029;50.994;2.876;2022-09-03T19:30:15;22.20;99.90
61151;DHT22;47029;50.994;2.876;2022-09-03T19:43:30;22.10;99.90
61151;DHT22;47029;50.994;2.876;2022-09-03T19:46:39;22.00;99.90
61151;DHT22;47029;50.994;2.876;2022-09-03T19:52:44;21.80;99.90
61151;DHT22;47029;50.994;2.876;2022-09-03T19:55:53;21.70;99.90
61151;DHT22;47029;50.994;2.876;2022-09-03T19:59:06;22.00;99.90
61151;DHT22;47029;50.994;2.876;2022-09-03T20:02:01;21.40;99.90
61151;DHT22;47029;50.994;2.876;2022-09-03T20:05:01;21.70;99.90
61151;DHT22;47029;50.994;2.876;2022-09-03T20:07:58;21.10;99.90
61151;DHT22;47029;50.994;2.876;2022-09-03T20:10:54;22.30;99.90
61151;DHT22;47029;50.994;2.876;2022-09-03T20:13:52;21.80;99.90
61151;DHT22;47029;50.994;2.876;2022-09-03T20:20:06;21.70;99.90
61151;DHT22;47029;50.994;2.876;2022-09-03T20:47:19;21.50;99.90
61151;DHT22;47029;50.994;2.876;2022-09-03T21:05:50;21.30;99.90
61151;DHT22;47029;50.994;2.876;2022-09-03T21:26:28;21.40;99.90
61151;DHT22;47029;50.994;2.876;2022-09-03T21:32:26;21.40;99.90
61151;DHT22;47029;50.994;2.876;2022-09-03T21:38:22;21.10;99.90
61151;DHT22;47029;50.994;2.876;2022-09-03T21:41:30;21.30;99.90
61151;DHT22;47029;50.994;2.876;2022-09-03T21:47:29;21.30;99.90
61151;DHT22;47029;50.994;2.876;2022-09-03T21:50:16;21.20;99.90
61151;DHT22;47029;50.994;2.876;2022-09-03T21:59:02;21.30;99.90
61151;DHT22;47029;50.994;2.876;2022-09-03T22:04:25;20.90;99.90
61151;DHT22;47029;50.994;2.876;2022-09-03T22:07:10;21.10;99.90
61151;DHT22;47029;50.994;2.876;2022-09-03T22:16:00;21.00;99.90
61151;DHT22;47029;50.994;2.876;2022-09-03T22:18:29;21.10;99.90
61151;DHT22;47029;50.994;2.876;2022-09-03T22:30:39;20.90;99.90
61151;DHT22;47029;50.994;2.876;2022-09-03T22:33:38;20.80;99.90
61151;DHT22;47029;50.994;2.876;2022-09-03T22:36:12;20.80;99.90
61151;DHT22;47029;50.994;2.876;2022-09-03T22:55:31;20.30;99.90
61151;DHT22;47029;50.994;2.876;2022-09-03T22:58:10;20.70;99.90
61151;DHT22;47029;50.994;2.876;2022-09-03T23:00:47;20.20;99.90
61151;DHT22;47029;50.994;2.876;2022-09-03T23:03:40;20.60;99.90
61151;DHT22;47029;50.994;2.876;2022-09-03T23:06:36;20.60;99.90
61151;DHT22;47029;50.994;2.876;2022-09-03T23:09:29;20.50;99.90
61151;DHT22;47029;50.994;2.876;2022-09-03T23:15:03;20.60;99.90
61151;DHT22;47029;50.994;2.876;2022-09-03T23:17:53;20.60;99.90
61151;DHT22;47029;50.994;2.876;2022-09-03T23:20:35;20.30;99.90
61151;DHT22;47029;50.994;2.876;2022-09-03T23:23:20;20.50;99.90
61151;DHT22;47029;50.994;2.876;2022-09-03T23:25:57;20.50;99.90
61151;DHT22;47029;50.994;2.876;2022-09-03T23:31:57;20.00;99.90
61151;DHT22;47029;50.994;2.876;2022-09-03T23:34:28;20.50;99.90
61151;DHT22;47029;50.994;2.876;2022-09-03T23:37:28;20.50;99.90
61151;DHT22;47029;50.994;2.876;2022-09-03T23:43:34;20.50;99.90
